Terminal Aerodrome Forecast
Issued by NWS

Home | Current Version | Previous Version | Text Only | Print | Product List | Glossary Off
Versions: 1 2 3 4 5 6 7 8 9 10 11 12 13 14 15 16 17 18 19 20 21 22 23 24 25 26 27 28 29 30 31 32 33 34
000 FTUS41 KBOX 231125 TAFFMH TAF KFMH 231125Z 2312/2412 03007KT P6SM SCT020 SCT070 FM231500 04012KT P6SM BKN040 FM231800 04012KT P6SM SCT050 FM232300 04008KT P6SM SCT250 FM240400 04004KT P6SM FEW250=

USA.gov is the U.S. government's official web portal to all federal, state and local government web resources and services.